Green Fast — ZDHA9 — position and weather

sailwx.info

Track history (hours):
 
Tides and Currents Weather Stations Pressure Air Temp Water Temp Dewpoint Dewpoint Depression Visibility Wind Speed Wind Dir Waves Ship Positions

Green Fast

Last reported at 2015-Mar-23 20:33 UTC. Time now 2015-Mar-29 10:37 UTC.
Position N 37°00' E 012°16'.

Length 118 m; draft 7.5 m.

Type: Cargo ship. MMSI: 236294000.

Date/timePositionNaut miles runAvg speedWind from/ knotsBaromVisibWave heightAir tempDewpointWater temp
2015-Mar-23 20:33N 37°00' E 012°16'2512.7
2015-Mar-23 18:33N 36°48' E 012°44'1412.8
2015-Mar-23 17:29N 36°42' E 012°59'1212.7
2015-Mar-23 16:30N 36°36' E 013°13'  
2015-Mar-16 21:33N 40°40' E 003°25'1212.0
2015-Mar-16 20:33N 40°46' E 003°12'1212.2
2015-Mar-16 19:33N 40°53' E 002°58'1212.1
2015-Mar-16 18:33N 40°60' E 002°45'1211.9
2015-Mar-16 17:31N 41°07' E 002°31'1512.2
2015-Mar-16 16:18N 41°15' E 002°15'7 3.8
2015-Mar-16 14:27N 41°21' E 002°10'0 0.0
2015-Mar-16 12:27N 41°21' E 002°10'1 0.1
2015-Mar-15 18:27N 41°20' E 002°11'0 0.2
2015-Mar-15 17:32N 41°20' E 002°11'0 0.0
2015-Mar-15 16:24N 41°20' E 002°11'0 0.0
2015-Mar-15 14:22N 41°20' E 002°11'0 0.0
2015-Mar-15 07:18N 41°20' E 002°11'11 2.4
2015-Mar-15 02:32N 41°10' E 002°03'1010.5
2015-Mar-15 01:33N 41°02' E 001°55'1110.5
2015-Mar-15 00:33N 40°54' E 001°46'1010.4
2015-Mar-14 23:33N 40°46' E 001°37'1110.6
2015-Mar-14 22:33N 40°39' E 001°27'1010.5
2015-Mar-14 21:33N 40°33' E 001°16'1010.3
2015-Mar-14 20:33N 40°27' E 001°04'1110.8
2015-Mar-14 19:33N 40°21' E 000°53'  
Track history (hours):
 
Tides and Currents Weather Stations Pressure Air Temp Water Temp Dewpoint Dewpoint Depression Visibility Wind Speed Wind Dir Waves Ship Positions

Green Fast

Last reported at 2015-Mar-23 20:33 UTC. Time now 2015-Mar-29 10:37 UTC.
Position N 37°00' E 012°16'.

Length 118 m; draft 7.5 m.

Type: Cargo ship. MMSI: 236294000.

Date/timePositionNaut miles runAvg speedWind from/ knotsBaromVisibWave heightAir tempDewpointWater temp
2015-Mar-23 20:33N 37°00' E 012°16'2512.7
2015-Mar-23 18:33N 36°48' E 012°44'1412.8
2015-Mar-23 17:29N 36°42' E 012°59'1212.7
2015-Mar-23 16:30N 36°36' E 013°13'  
2015-Mar-16 21:33N 40°40' E 003°25'1212.0
2015-Mar-16 20:33N 40°46' E 003°12'1212.2
2015-Mar-16 19:33N 40°53' E 002°58'1212.1
2015-Mar-16 18:33N 40°60' E 002°45'1211.9
2015-Mar-16 17:31N 41°07' E 002°31'1512.2
2015-Mar-16 16:18N 41°15' E 002°15'7 3.8
2015-Mar-16 14:27N 41°21' E 002°10'0 0.0
2015-Mar-16 12:27N 41°21' E 002°10'1 0.1
2015-Mar-15 18:27N 41°20' E 002°11'0 0.2
2015-Mar-15 17:32N 41°20' E 002°11'0 0.0
2015-Mar-15 16:24N 41°20' E 002°11'0 0.0
2015-Mar-15 14:22N 41°20' E 002°11'0 0.0
2015-Mar-15 07:18N 41°20' E 002°11'11 2.4
2015-Mar-15 02:32N 41°10' E 002°03'1010.5
2015-Mar-15 01:33N 41°02' E 001°55'1110.5
2015-Mar-15 00:33N 40°54' E 001°46'1010.4
2015-Mar-14 23:33N 40°46' E 001°37'1110.6
2015-Mar-14 22:33N 40°39' E 001°27'1010.5
2015-Mar-14 21:33N 40°33' E 001°16'1010.3
2015-Mar-14 20:33N 40°27' E 001°04'1110.8
2015-Mar-14 19:33N 40°21' E 000°53'  

Dump ship's entire track history